Time;durP1;ratioP1;P1;durP2;ratioP2;P2;SDS_P1;SDS_P2;PMS_P1;PMS_P2;Temp;Humidity;BMP_temperature;BMP_pressure;BME280_temperature;BME280_humidity;BME280_pressure;Samples;Min_cycle;Max_cycle;Signal;HPM_P1;HPM_P2
2021/08/31 00:04:31;;;;;;;11.90;9.05;;;;;;;14.34;85.18;102051.94;10137009;28;20142;-69
2021/08/31 00:09:28;;;;;;;14.90;10.38;;;;;;;14.30;85.05;102053.72;10143792;28;20075;-68
2021/08/31 00:14:24;;;;;;;15.32;10.38;;;;;;;14.22;85.10;102058.00;10137962;28;20069;-68
2021/08/31 00:19:21;;;;;;;14.65;10.73;;;;;;;14.21;85.45;102059.13;10145989;28;20141;-69
2021/08/31 00:24:17;;;;;;;15.00;10.20;;;;;;;14.19;85.23;102052.31;10134908;28;20453;-70
2021/08/31 00:29:14;;;;;;;16.77;10.10;;;;;;;14.15;85.29;102062.28;10134285;28;20479;-70
2021/08/31 00:34:10;;;;;;;14.27;10.57;;;;;;;14.01;85.50;102052.13;10126651;28;20052;-70
2021/08/31 00:39:07;;;;;;;20.30;10.60;;;;;;;13.96;86.07;102055.00;10138504;28;20046;-67
2021/08/31 00:44:04;;;;;;;17.75;10.98;;;;;;;13.90;85.88;102045.22;10150029;28;20133;-67
2021/08/31 00:49:01;;;;;;;15.65;10.95;;;;;;;13.89;86.03;102060.09;10136280;28;20109;-68
2021/08/31 00:53:57;;;;;;;17.00;10.57;;;;;;;13.85;86.10;102056.34;10135237;28;20968;-68
2021/08/31 00:58:54;;;;;;;13.88;9.63;;;;;;;13.78;86.04;102064.19;10122680;28;20062;-67
2021/08/31 01:03:51;;;;;;;15.50;9.80;;;;;;;13.76;85.73;102072.75;10146212;28;20133;-67
2021/08/31 01:08:47;;;;;;;14.38;9.35;;;;;;;13.70;86.10;102068.47;10125611;28;20073;-67
2021/08/31 01:13:44;;;;;;;11.10;8.43;;;;;;;13.65;86.13;102063.91;10136092;28;20138;-68
2021/08/31 01:18:42;;;;;;;15.45;10.20;;;;;;;13.64;86.11;102076.00;10151861;28;20043;-66
2021/08/31 01:23:38;;;;;;;13.63;8.95;;;;;;;13.54;86.25;102070.72;10141845;28;20631;-67
2021/08/31 01:28:35;;;;;;;15.95;9.15;;;;;;;13.50;86.87;102075.19;10150510;28;20074;-67
2021/08/31 01:33:33;;;;;;;13.52;9.18;;;;;;;13.51;86.57;102071.31;10139261;28;20054;-68
2021/08/31 01:38:30;;;;;;;17.17;9.88;;;;;;;13.41;86.82;102074.25;10145831;28;20057;-68
2021/08/31 01:43:26;;;;;;;14.10;9.30;;;;;;;13.45;86.98;102067.03;10149474;28;20038;-68
2021/08/31 01:48:23;;;;;;;15.00;9.43;;;;;;;13.39;86.88;102076.47;10144548;28;20128;-69
2021/08/31 01:53:19;;;;;;;14.85;9.70;;;;;;;13.31;86.90;102066.22;10147502;28;20121;-70
2021/08/31 01:58:16;;;;;;;14.43;9.82;;;;;;;13.27;87.38;102065.97;10143861;28;20058;-68
2021/08/31 02:03:13;;;;;;;19.80;10.07;;;;;;;13.21;87.28;102064.44;10140357;28;20501;-68
2021/08/31 02:08:10;;;;;;;15.82;10.40;;;;;;;13.16;87.73;102059.88;10141197;28;20046;-70
2021/08/31 02:13:06;;;;;;;16.13;10.70;;;;;;;13.13;88.21;102076.94;10133277;28;20503;-69
2021/08/31 02:18:03;;;;;;;15.40;9.98;;;;;;;13.12;88.24;102075.31;10150458;28;20054;-69
2021/08/31 02:23:00;;;;;;;13.23;10.35;;;;;;;13.13;88.10;102076.94;10132025;28;20766;-68
2021/08/31 02:27:57;;;;;;;16.85;10.05;;;;;;;13.12;88.03;102061.59;10145340;28;20084;-68
2021/08/31 02:32:59;;;;;;;17.85;11.25;;;;;;;13.04;88.12;102068.59;10144296;28;20113;-69
2021/08/31 02:37:56;;;;;;;17.00;10.35;;;;;;;12.96;88.24;102071.19;10145656;28;20574;-68
2021/08/31 02:42:52;;;;;;;21.67;12.70;;;;;;;12.99;88.03;102070.59;10138194;28;20537;-68
2021/08/31 02:47:49;;;;;;;18.85;11.20;;;;;;;12.98;88.32;102074.47;10146800;28;20042;-71
2021/08/31 02:52:46;;;;;;;16.52;11.20;;;;;;;12.98;88.01;102071.72;10141349;28;20038;-70
2021/08/31 02:57:42;;;;;;;17.60;11.30;;;;;;;12.83;87.74;102073.63;10147985;28;20141;-68
2021/08/31 03:02:39;;;;;;;16.95;10.43;;;;;;;12.89;87.44;102076.28;10141747;28;20573;-69
2021/08/31 03:07:35;;;;;;;16.63;11.25;;;;;;;12.82;87.45;102074.72;10141329;28;20070;-68
2021/08/31 03:12:32;;;;;;;18.08;10.88;;;;;;;12.74;87.91;102069.94;10137488;28;20157;-69
2021/08/31 03:17:31;;;;;;;16.88;11.90;;;;;;;12.65;87.77;102077.22;10139777;28;20050;-70
2021/08/31 03:22:28;;;;;;;19.25;10.55;;;;;;;12.69;87.65;102077.41;10144976;28;20776;-69
2021/08/31 03:27:24;;;;;;;16.80;11.57;;;;;;;12.67;87.64;102074.97;10144136;28;20504;-71
2021/08/31 03:32:21;;;;;;;17.13;11.25;;;;;;;12.59;87.94;102073.72;10117425;28;20081;-67
2021/08/31 03:37:18;;;;;;;17.15;11.23;;;;;;;12.55;88.32;102077.34;10145750;28;20078;-67
2021/08/31 03:42:15;;;;;;;16.15;10.40;;;;;;;12.52;88.75;102072.47;10143117;28;20047;-66
2021/08/31 03:47:12;;;;;;;17.20;11.77;;;;;;;12.55;88.22;102066.38;10123102;28;20436;-71
2021/08/31 03:52:08;;;;;;;22.08;12.88;;;;;;;12.53;88.27;102074.09;10144411;28;20086;-68
2021/08/31 03:57:05;;;;;;;24.00;11.23;;;;;;;12.56;88.12;102076.25;10144105;28;20050;-67
2021/08/31 04:02:02;;;;;;;16.48;11.05;;;;;;;12.55;87.94;102075.41;10134295;28;20050;-67
2021/08/31 04:06:59;;;;;;;15.95;11.68;;;;;;;12.55;87.44;102086.38;10141551;28;20158;-66
2021/08/31 04:11:55;;;;;;;16.77;11.27;;;;;;;12.51;87.74;102092.75;10144330;28;20038;-66
2021/08/31 04:16:51;;;;;;;20.33;12.80;;;;;;;12.45;87.99;102088.50;10139733;28;20555;-67
2021/08/31 04:21:48;;;;;;;17.55;11.48;;;;;;;12.39;88.28;102094.06;10139400;28;20125;-67
2021/08/31 04:26:44;;;;;;;21.60;12.50;;;;;;;12.40;88.40;102103.91;10143394;28;20580;-66
2021/08/31 04:31:41;;;;;;;16.88;11.65;;;;;;;12.38;88.14;102097.09;10137596;28;20043;-66
2021/08/31 04:36:37;;;;;;;17.67;12.02;;;;;;;12.32;88.67;102101.00;10142713;28;20109;-66
2021/08/31 04:41:34;;;;;;;19.70;12.40;;;;;;;12.27;88.72;102106.56;10137191;28;20133;-67
2021/08/31 04:46:31;;;;;;;20.33;12.27;;;;;;;12.32;88.96;102107.31;10136923;28;20046;-67
2021/08/31 04:51:27;;;;;;;18.77;13.10;;;;;;;12.29;88.61;102109.81;10137269;28;20050;-65
2021/08/31 04:56:23;;;;;;;18.45;12.52;;;;;;;12.34;88.60;102112.50;10125427;28;20099;-66
2021/08/31 05:01:20;;;;;;;24.92;12.95;;;;;;;12.33;88.40;102122.66;10135607;28;20100;-66
2021/08/31 05:06:17;;;;;;;19.58;13.05;;;;;;;12.33;88.35;102114.44;10133319;28;20043;-66
2021/08/31 05:11:13;;;;;;;20.27;13.07;;;;;;;12.33;88.33;102111.69;10126017;28;20130;-67
2021/08/31 05:16:14;;;;;;;19.73;12.02;;;;;;;12.33;88.51;102114.44;10136876;28;20121;-67
2021/08/31 05:21:10;;;;;;;16.08;11.63;;;;;;;12.37;88.32;102118.22;10124220;28;20117;-67
2021/08/31 05:26:08;;;;;;;18.55;12.20;;;;;;;12.45;88.77;102132.38;10136848;28;20042;-67
2021/08/31 05:31:04;;;;;;;21.38;12.52;;;;;;;12.48;88.57;102131.78;10135448;28;20118;-68
2021/08/31 05:36:02;;;;;;;22.48;12.50;;;;;;;12.49;88.65;102128.75;10141771;28;20138;-68
2021/08/31 05:40:58;;;;;;;19.67;12.38;;;;;;;12.46;89.48;102137.53;10147411;28;20046;-68
2021/08/31 05:45:55;;;;;;;23.42;12.45;;;;;;;12.45;89.60;102143.34;10145436;28;20130;-67
2021/08/31 05:50:51;;;;;;;20.60;12.48;;;;;;;12.54;89.94;102141.56;10139170;28;20393;-67
2021/08/31 05:55:48;;;;;;;17.88;12.38;;;;;;;12.59;89.91;102144.25;10142137;28;20547;-67
2021/08/31 06:00:44;;;;;;;25.77;12.07;;;;;;;12.67;90.05;102138.09;10144521;28;20130;-69
2021/08/31 06:05:41;;;;;;;17.50;11.63;;;;;;;12.74;90.08;102146.75;10139762;28;20042;-68
2021/08/31 06:10:42;;;;;;;15.07;11.27;;;;;;;12.82;90.40;102156.25;10143390;28;20042;-68
2021/08/31 06:15:38;;;;;;;20.25;12.73;;;;;;;12.90;90.73;102160.25;10139160;28;20085;-68
2021/08/31 06:20:36;;;;;;;16.42;11.30;;;;;;;13.02;90.83;102149.63;10142672;28;20104;-68
2021/08/31 06:25:32;;;;;;;18.73;10.93;;;;;;;13.06;90.99;102161.63;10135547;28;20066;-69
2021/08/31 06:30:28;;;;;;;18.33;11.50;;;;;;;13.12;91.72;102165.94;10141493;28;20505;-67
2021/08/31 06:35:25;;;;;;;18.15;11.38;;;;;;;13.26;91.69;102169.53;10143282;28;20114;-68
2021/08/31 06:40:21;;;;;;;17.75;9.77;;;;;;;13.37;92.08;102169.41;10144138;28;20469;-69
2021/08/31 06:45:18;;;;;;;20.50;10.63;;;;;;;13.50;92.26;102168.59;10138032;28;20125;-70
2021/08/31 06:50:16;;;;;;;14.65;9.32;;;;;;;13.60;92.68;102171.19;10142811;28;20073;-68
2021/08/31 06:55:14;;;;;;;17.15;9.77;;;;;;;13.71;92.40;102169.03;10136547;28;20046;-68
2021/08/31 07:00:11;;;;;;;15.73;9.48;;;;;;;13.83;92.42;102160.28;10136296;28;20096;-68
2021/08/31 07:05:08;;;;;;;17.83;9.52;;;;;;;13.96;92.97;102159.50;10131048;28;20161;-67
2021/08/31 07:10:05;;;;;;;16.73;8.93;;;;;;;14.08;92.66;102162.53;10140426;28;20054;-68
2021/08/31 07:15:02;;;;;;;16.90;8.98;;;;;;;14.21;92.87;102165.59;10136862;28;20137;-69
2021/08/31 07:19:59;;;;;;;15.13;8.43;;;;;;;14.31;92.94;102168.13;10138391;28;20444;-68
2021/08/31 07:24:55;;;;;;;15.55;8.10;;;;;;;14.45;92.99;102168.09;10144102;28;20035;-68
2021/08/31 07:29:52;;;;;;;16.00;7.72;;;;;;;14.57;92.69;102167.59;10140567;28;20673;-68
2021/08/31 07:34:48;;;;;;;17.70;7.93;;;;;;;14.70;92.46;102166.75;10144513;28;20515;-68
2021/08/31 07:39:45;;;;;;;11.23;7.15;;;;;;;14.86;92.40;102170.78;10147416;28;20116;-68
2021/08/31 07:44:42;;;;;;;15.77;7.13;;;;;;;15.02;91.79;102170.41;10143147;28;20085;-68
2021/08/31 07:49:39;;;;;;;9.18;5.32;;;;;;;15.17;90.51;102175.53;10128561;28;20042;-68
2021/08/31 07:54:36;;;;;;;10.48;5.78;;;;;;;15.32;90.16;102177.91;10136765;28;20055;-67
2021/08/31 07:59:32;;;;;;;11.57;6.22;;;;;;;15.46;88.34;102185.28;10139864;28;20081;-67
2021/08/31 08:04:30;;;;;;;11.07;4.93;;;;;;;15.58;87.87;102188.28;10135416;28;20097;-67
2021/08/31 08:09:27;;;;;;;9.98;5.63;;;;;;;15.71;86.18;102189.34;10134872;28;20043;-67
2021/08/31 08:14:23;;;;;;;12.98;4.57;;;;;;;15.86;83.79;102190.88;10144710;28;20054;-68
2021/08/31 08:19:19;;;;;;;8.70;4.88;;;;;;;16.00;82.54;102197.09;10129731;28;20457;-67
2021/08/31 08:24:16;;;;;;;8.50;4.05;;;;;;;16.18;80.10;102198.78;10135841;28;20065;-67
2021/08/31 08:29:12;;;;;;;9.60;4.03;;;;;;;16.30;79.92;102200.13;10140740;28;20190;-69
2021/08/31 08:34:13;;;;;;;9.68;4.50;;;;;;;16.44;80.08;102200.00;10143340;28;20046;-68
2021/08/31 08:39:09;;;;;;;8.00;4.82;;;;;;;16.54;80.79;102203.22;10142089;28;20146;-67
2021/08/31 08:44:06;;;;;;;10.32;4.43;;;;;;;16.70;79.36;102203.59;10139822;28;20161;-67
2021/08/31 08:49:02;;;;;;;8.73;4.18;;;;;;;16.85;76.33;102204.28;10138916;28;20189;-68
2021/08/31 08:53:59;;;;;;;7.43;3.55;;;;;;;16.95;76.03;102204.78;10141042;28;20108;-68
2021/08/31 08:58:55;;;;;;;9.90;4.18;;;;;;;17.06;74.33;102202.50;10145214;28;20162;-68
2021/08/31 09:03:53;;;;;;;9.63;3.63;;;;;;;17.16;73.32;102204.13;10136695;28;20046;-68
2021/08/31 09:08:55;;;;;;;8.63;3.92;;;;;;;17.29;73.02;102196.78;10142223;28;20101;-69
2021/08/31 09:14:13;;;;;;;8.18;4.30;;;;;;;17.44;69.32;102202.59;10135230;28;20125;-68
2021/08/31 09:19:09;;;;;;;10.00;3.85;;;;;;;17.62;71.01;102205.34;10133059;28;20046;-68
2021/08/31 09:24:06;;;;;;;10.93;4.22;;;;;;;17.76;69.12;102205.94;10147025;28;20085;-69
2021/08/31 09:29:16;;;;;;;7.55;4.20;;;;;;;17.95;70.14;102213.06;10141860;28;20141;-68
2021/08/31 09:34:44;;;;;;;7.13;4.13;;;;;;;18.12;72.51;102215.75;10144076;28;20074;-68
2021/08/31 09:39:41;;;;;;;7.30;3.85;;;;;;;18.41;70.22;102214.13;10146263;28;20622;-67
2021/08/31 09:44:37;;;;;;;7.75;3.45;;;;;;;18.55;70.07;102214.69;10149177;28;20090;-68
2021/08/31 09:49:40;;;;;;;8.18;3.75;;;;;;;18.95;62.53;102217.03;10138390;28;20720;-68
2021/08/31 09:54:45;;;;;;;11.23;3.33;;;;;;;19.37;68.69;102216.97;10147405;28;20113;-68
2021/08/31 09:59:41;;;;;;;8.75;3.53;;;;;;;19.78;64.27;102220.00;10137476;28;20104;-68
2021/08/31 10:04:37;;;;;;;6.60;3.88;;;;;;;19.70;65.09;102213.38;10142299;28;20082;-69
2021/08/31 10:09:37;;;;;;;6.00;3.10;;;;;;;19.44;64.57;102211.66;10137842;28;20081;-69
2021/08/31 10:14:38;;;;;;;7.57;4.13;;;;;;;20.29;61.10;102214.94;10139285;28;20042;-67
2021/08/31 10:19:35;;;;;;;10.15;4.43;;;;;;;20.99;56.02;102223.03;10139579;28;20093;-69
2021/08/31 10:24:31;;;;;;;6.82;3.55;;;;;;;22.24;55.24;102208.88;10138114;28;20104;-69
2021/08/31 10:29:28;;;;;;;6.72;4.18;;;;;;;22.11;51.83;102215.69;10139398;28;20054;-69
2021/08/31 10:34:30;;;;;;;6.30;3.85;;;;;;;21.56;54.32;102219.09;10146738;28;20085;-69
2021/08/31 10:39:41;;;;;;;5.38;3.30;;;;;;;21.70;56.97;102212.28;10130435;28;20046;-68
2021/08/31 10:44:41;;;;;;;7.57;4.05;;;;;;;22.62;54.94;102218.50;10139454;28;20038;-68
2021/08/31 10:49:56;;;;;;;7.65;4.15;;;;;;;23.42;53.61;102211.41;10137398;28;20080;-69
2021/08/31 10:54:53;;;;;;;7.10;3.85;;;;;;;22.72;52.67;102223.53;10136718;28;20760;-69
2021/08/31 10:59:49;;;;;;;8.73;4.22;;;;;;;22.16;52.71;102224.56;10137305;28;20080;-69
2021/08/31 11:04:46;;;;;;;6.63;3.45;;;;;;;23.37;51.28;102219.25;10130798;28;20039;-67
2021/08/31 11:09:44;;;;;;;9.43;3.85;;;;;;;24.12;47.53;102215.03;10135810;28;20100;-68
2021/08/31 11:14:49;;;;;;;5.57;3.13;;;;;;;23.92;50.59;102214.28;10141674;28;20080;-69
2021/08/31 11:19:45;;;;;;;7.88;3.58;;;;;;;23.65;49.11;102214.22;10144128;28;20081;-69
2021/08/31 11:24:53;;;;;;;7.68;4.30;;;;;;;23.09;51.87;102221.13;10133863;28;20301;-68
2021/08/31 11:29:57;;;;;;;7.53;3.58;;;;;;;23.15;51.66;102212.47;10139418;28;20050;-69
2021/08/31 11:35:01;;;;;;;5.03;2.75;;;;;;;22.93;52.10;102230.69;10136095;28;20550;-68
2021/08/31 11:39:58;;;;;;;4.95;3.10;;;;;;;22.08;53.31;102230.34;10138218;28;20081;-68
2021/08/31 11:44:58;;;;;;;6.78;3.72;;;;;;;21.60;54.72;102231.13;10141978;28;20497;-69
2021/08/31 11:50:00;;;;;;;7.72;3.35;;;;;;;21.55;52.54;102233.38;10136181;28;20085;-68
2021/08/31 11:54:58;;;;;;;7.15;3.45;;;;;;;21.70;55.02;102234.53;10134799;28;20046;-69
2021/08/31 11:59:55;;;;;;;6.82;3.33;;;;;;;21.83;50.59;102230.53;10137072;28;20096;-69
2021/08/31 12:04:54;;;;;;;6.28;4.03;;;;;;;21.86;55.13;102238.16;10133769;28;20091;-69
2021/08/31 12:09:55;;;;;;;10.27;3.80;;;;;;;21.76;56.12;102230.34;10120619;28;20050;-68
2021/08/31 12:14:52;;;;;;;6.82;3.03;;;;;;;21.51;51.75;102238.03;10128874;28;20050;-68
2021/08/31 12:19:49;;;;;;;7.75;3.63;;;;;;;22.41;52.35;102236.34;10122274;28;20128;-69
2021/08/31 12:24:57;;;;;;;5.78;3.85;;;;;;;23.89;49.98;102240.19;10132661;28;20468;-69
2021/08/31 12:29:55;;;;;;;7.47;3.22;;;;;;;24.86;45.46;102231.28;10138301;28;20054;-68
2021/08/31 12:34:53;;;;;;;5.30;3.47;;;;;;;24.94;48.80;102244.16;10143204;28;20043;-69
2021/08/31 12:40:14;;;;;;;7.50;4.70;;;;;;;24.42;50.55;102245.81;10142778;28;20108;-69
2021/08/31 12:45:11;;;;;;;8.93;3.95;;;;;;;23.55;47.95;102241.94;10145926;28;20130;-68
2021/08/31 12:50:12;;;;;;;9.05;4.20;;;;;;;23.10;49.10;102241.47;10143932;28;20082;-69
2021/08/31 12:55:21;;;;;;;7.53;3.65;;;;;;;23.50;45.69;102240.25;10137625;28;20089;-69
2021/08/31 13:00:20;;;;;;;8.32;3.95;;;;;;;24.11;46.54;102235.75;10138446;28;20070;-67
2021/08/31 13:05:17;;;;;;;6.93;3.72;;;;;;;23.84;47.74;102243.28;10141875;28;20103;-69
2021/08/31 13:10:18;;;;;;;5.85;3.35;;;;;;;23.15;45.69;102235.59;10138763;28;20104;-68
2021/08/31 13:15:14;;;;;;;8.18;3.80;;;;;;;22.59;47.92;102242.34;10135709;28;20100;-68
2021/08/31 13:20:11;;;;;;;7.13;3.80;;;;;;;23.20;49.74;102226.09;10141797;28;20050;-69
2021/08/31 13:25:08;;;;;;;6.68;3.50;;;;;;;23.37;45.48;102230.41;10141836;28;20085;-69
2021/08/31 13:30:05;;;;;;;5.10;3.20;;;;;;;23.28;46.91;102216.72;10142597;28;20085;-68
2021/08/31 13:35:02;;;;;;;6.65;4.00;;;;;;;23.21;48.19;102211.81;10141379;28;20477;-68
2021/08/31 13:39:58;;;;;;;8.63;3.63;;;;;;;23.33;48.08;102224.78;10144756;28;20043;-68
2021/08/31 13:44:55;;;;;;;5.50;3.40;;;;;;;23.45;44.09;102210.66;10137241;28;20042;-68
2021/08/31 13:49:51;;;;;;;6.35;3.45;;;;;;;23.89;43.39;102206.66;10143460;28;20404;-68
2021/08/31 13:54:48;;;;;;;7.53;3.63;;;;;;;23.98;43.06;102198.03;10145993;28;20141;-69
2021/08/31 13:59:45;;;;;;;7.20;3.65;;;;;;;23.87;42.42;102192.25;10143118;28;20581;-68
2021/08/31 14:04:41;;;;;;;5.88;3.35;;;;;;;24.32;47.57;102190.56;10137262;28;20046;-69
2021/08/31 14:09:38;;;;;;;8.02;4.00;;;;;;;24.42;50.66;102186.31;10142793;28;20662;-68
2021/08/31 14:14:34;;;;;;;6.55;3.67;;;;;;;23.66;50.89;102192.69;10143439;28;20073;-69
2021/08/31 14:19:31;;;;;;;10.50;3.80;;;;;;;23.00;49.55;102200.19;10137947;28;20105;-68
2021/08/31 14:24:27;;;;;;;6.22;3.55;;;;;;;22.64;49.43;102200.22;10144710;28;20141;-68
2021/08/31 14:29:24;;;;;;;7.00;3.33;;;;;;;22.66;51.27;102199.88;10140446;28;20055;-68
2021/08/31 14:34:20;;;;;;;7.35;3.50;;;;;;;22.70;46.21;102186.81;10142686;28;20034;-69
2021/08/31 14:39:17;;;;;;;6.35;3.60;;;;;;;22.65;44.95;102201.03;10144436;28;20102;-68
2021/08/31 14:44:13;;;;;;;8.43;4.13;;;;;;;22.70;48.87;102197.97;10145125;28;20153;-69
2021/08/31 14:49:10;;;;;;;8.52;4.03;;;;;;;22.62;50.57;102196.19;10140808;28;20554;-69
2021/08/31 14:54:06;;;;;;;7.70;3.80;;;;;;;22.53;53.06;102203.97;10138196;28;20129;-72
2021/08/31 14:59:03;;;;;;;6.13;3.65;;;;;;;22.57;53.84;102199.28;10132161;28;20073;-69
2021/08/31 15:04:00;;;;;;;5.60;3.33;;;;;;;22.61;53.25;102187.03;10142042;28;20042;-69
2021/08/31 15:08:58;;;;;;;6.57;4.18;;;;;;;22.77;49.63;102192.56;10133087;28;20046;-68
2021/08/31 15:13:54;;;;;;;5.30;3.28;;;;;;;22.89;52.93;102189.59;10146393;28;20049;-66
2021/08/31 15:18:54;;;;;;;5.75;3.42;;;;;;;22.89;53.80;102184.03;10142773;28;20146;-69
2021/08/31 15:23:51;;;;;;;7.97;3.50;;;;;;;22.65;54.66;102181.53;10142842;28;20471;-69
2021/08/31 15:28:52;;;;;;;5.68;3.28;;;;;;;22.43;49.10;102181.06;10144790;28;20475;-67
2021/08/31 15:33:49;;;;;;;8.05;3.50;;;;;;;22.57;51.70;102182.56;10137106;28;20145;-67
2021/08/31 15:38:45;;;;;;;5.70;3.60;;;;;;;22.55;46.80;102182.09;10143746;28;20050;-69
2021/08/31 15:43:42;;;;;;;6.10;3.67;;;;;;;22.51;43.98;102184.00;10142207;28;20077;-70
2021/08/31 15:48:38;;;;;;;8.18;3.88;;;;;;;22.63;46.63;102187.47;10138415;28;20042;-71
2021/08/31 15:53:35;;;;;;;11.85;3.92;;;;;;;22.67;46.32;102181.97;10142022;28;20073;-67
2021/08/31 15:58:32;;;;;;;8.25;4.30;;;;;;;22.78;47.27;102171.84;10140971;28;20141;-68
2021/08/31 16:03:28;;;;;;;8.40;4.78;;;;;;;22.84;46.96;102184.34;10136565;28;20073;-69
2021/08/31 16:08:25;;;;;;;9.02;4.60;;;;;;;22.79;46.50;102179.06;10142660;28;20479;-69
2021/08/31 16:13:22;;;;;;;7.35;4.25;;;;;;;22.83;48.58;102182.69;10137161;28;20476;-67
2021/08/31 16:18:18;;;;;;;9.80;5.00;;;;;;;22.85;48.52;102188.72;10141661;28;20141;-68
2021/08/31 16:23:15;;;;;;;9.82;4.57;;;;;;;22.76;48.11;102190.91;10139618;28;20077;-68
2021/08/31 16:28:11;;;;;;;9.38;4.30;;;;;;;22.61;47.90;102183.44;10132435;28;20097;-67
2021/08/31 16:33:09;;;;;;;8.52;4.15;;;;;;;22.79;48.64;102186.59;10142239;28;20046;-68
2021/08/31 16:38:06;;;;;;;9.05;4.00;;;;;;;22.77;47.33;102191.75;10145769;28;20535;-68
2021/08/31 16:43:02;;;;;;;9.45;4.47;;;;;;;22.51;48.92;102190.38;10139052;28;20101;-68
2021/08/31 16:47:59;;;;;;;7.68;3.97;;;;;;;22.24;47.85;102186.59;10141582;28;20557;-67
2021/08/31 16:52:58;;;;;;;8.77;5.30;;;;;;;22.33;48.50;102189.19;10142113;28;20054;-67
2021/08/31 16:57:54;;;;;;;7.85;4.57;;;;;;;23.10;47.17;102188.47;10139829;28;20065;-68
2021/08/31 17:02:54;;;;;;;6.32;4.00;;;;;;;23.70;45.62;102177.59;10142157;28;20080;-68
2021/08/31 17:07:51;;;;;;;7.10;4.47;;;;;;;22.98;47.43;102196.97;10124521;28;20051;-67
2021/08/31 17:12:47;;;;;;;8.10;4.55;;;;;;;22.44;48.32;102191.06;10137612;28;20073;-68
2021/08/31 17:17:43;;;;;;;8.63;4.15;;;;;;;22.01;49.03;102201.16;10141023;28;20050;-68
2021/08/31 17:22:40;;;;;;;8.02;4.47;;;;;;;21.77;49.94;102201.31;10147193;28;20133;-67
2021/08/31 17:27:38;;;;;;;7.78;4.18;;;;;;;21.53;50.39;102208.66;10147781;28;20420;-67
2021/08/31 17:32:34;;;;;;;7.93;4.63;;;;;;;21.38;51.20;102206.66;10145577;28;20105;-68
2021/08/31 17:37:31;;;;;;;9.45;4.50;;;;;;;21.14;51.67;102208.41;10145755;28;22074;-68
2021/08/31 17:42:27;;;;;;;8.13;4.60;;;;;;;20.99;52.20;102200.81;10144297;28;20124;-67
2021/08/31 17:47:24;;;;;;;10.50;4.47;;;;;;;20.84;52.85;102202.38;10142768;28;20147;-68
2021/08/31 17:52:21;;;;;;;7.55;4.95;;;;;;;20.73;53.63;102199.25;10147122;28;20073;-67
2021/08/31 17:57:18;;;;;;;10.63;4.80;;;;;;;20.64;53.80;102212.47;10153071;28;20065;-67
2021/08/31 18:02:14;;;;;;;10.23;5.55;;;;;;;20.51;54.52;102219.19;10146010;28;20904;-68
2021/08/31 18:07:11;;;;;;;14.13;6.70;;;;;;;20.37;55.12;102227.88;10143033;28;20065;-67
2021/08/31 18:12:08;;;;;;;9.40;5.30;;;;;;;20.23;57.39;102236.56;10142910;28;20815;-68
2021/08/31 18:17:04;;;;;;;9.90;4.88;;;;;;;20.06;59.72;102245.94;10141602;28;20043;-67
2021/08/31 18:22:01;;;;;;;14.52;4.97;;;;;;;19.94;62.44;102252.28;10145747;28;20153;-68
2021/08/31 18:26:57;;;;;;;11.32;4.82;;;;;;;19.71;65.42;102248.31;10145179;28;20143;-68
2021/08/31 18:31:54;;;;;;;17.80;5.63;;;;;;;19.60;67.06;102263.75;10152147;28;20042;-67
2021/08/31 18:36:50;;;;;;;15.90;5.05;;;;;;;19.46;68.64;102253.75;10143583;28;20069;-67
2021/08/31 18:41:47;;;;;;;16.75;5.38;;;;;;;19.39;69.14;102270.13;10145218;28;20203;-66
2021/08/31 18:46:43;;;;;;;17.67;5.18;;;;;;;19.31;69.34;102279.38;10145313;28;20471;-67
2021/08/31 18:51:43;;;;;;;17.08;5.50;;;;;;;19.14;71.27;102275.56;10142038;28;20125;-67
2021/08/31 18:56:40;;;;;;;15.77;5.15;;;;;;;18.92;72.98;102273.94;10141745;28;20154;-67
2021/08/31 19:01:37;;;;;;;16.33;4.63;;;;;;;18.82;73.13;102284.59;10142045;28;20133;-68
2021/08/31 19:06:34;;;;;;;13.80;5.03;;;;;;;18.77;72.77;102293.94;10147251;28;20393;-67
2021/08/31 19:11:30;;;;;;;19.90;5.45;;;;;;;18.62;73.46;102300.84;10146441;28;20547;-67
2021/08/31 19:16:27;;;;;;;21.95;5.53;;;;;;;18.57;73.46;102295.50;10144820;28;20070;-68
2021/08/31 19:21:23;;;;;;;16.98;5.43;;;;;;;18.46;74.40;102294.25;10129048;28;20113;-73
2021/08/31 19:26:20;;;;;;;19.13;4.85;;;;;;;18.36;74.47;102314.81;10137671;28;20129;-72
2021/08/31 19:31:17;;;;;;;15.57;4.60;;;;;;;18.32;75.07;102311.09;10141890;28;20119;-72
2021/08/31 19:36:14;;;;;;;16.23;6.30;;;;;;;18.24;74.95;102315.53;10142315;28;20512;-70
2021/08/31 19:41:14;;;;;;;27.65;7.93;;;;;;;18.04;76.03;102319.81;10145916;28;20073;-69
2021/08/31 19:46:10;;;;;;;29.10;9.55;;;;;;;17.91;76.38;102322.78;10145366;28;20127;-68
2021/08/31 19:51:07;;;;;;;14.45;4.60;;;;;;;17.95;76.36;102329.28;10140992;28;20042;-69
2021/08/31 19:56:05;;;;;;;15.07;5.47;;;;;;;17.91;76.17;102325.53;10140298;28;20523;-69
2021/08/31 20:01:02;;;;;;;21.50;6.75;;;;;;;17.82;76.50;102329.16;10143878;28;20108;-70
2021/08/31 20:05:59;;;;;;;19.70;5.35;;;;;;;17.69;77.24;102329.31;10121175;28;20472;-69
2021/08/31 20:10:57;;;;;;;22.45;5.97;;;;;;;17.51;77.90;102331.25;10137946;28;20562;-70
2021/08/31 20:15:53;;;;;;;19.17;5.22;;;;;;;17.45;78.20;102323.13;10140800;28;20105;-70
2021/08/31 20:20:50;;;;;;;18.23;5.32;;;;;;;17.27;79.06;102327.03;10145659;28;20125;-71
2021/08/31 20:25:46;;;;;;;24.63;6.10;;;;;;;17.21;79.23;102339.38;10145568;28;20078;-72
2021/08/31 20:30:44;;;;;;;19.33;6.25;;;;;;;17.04;79.59;102335.47;10126351;28;20052;-70
2021/08/31 20:35:40;;;;;;;24.88;6.75;;;;;;;17.09;79.34;102342.78;10142750;28;20686;-71
2021/08/31 20:40:37;;;;;;;22.73;6.80;;;;;;;16.96;80.22;102350.06;10143619;28;20129;-71
2021/08/31 20:45:33;;;;;;;22.80;7.30;;;;;;;16.89;80.62;102349.72;10138037;28;20100;-70
2021/08/31 20:50:30;;;;;;;19.92;6.00;;;;;;;16.80;80.72;102357.16;10138331;28;20409;-70
2021/08/31 20:55:26;;;;;;;19.75;7.45;;;;;;;16.80;80.42;102362.69;10144535;28;20046;-68
2021/08/31 21:00:23;;;;;;;26.70;6.90;;;;;;;16.75;80.85;102354.53;10142588;28;20093;-69
2021/08/31 21:05:19;;;;;;;26.48;7.55;;;;;;;16.57;81.93;102354.47;10139912;28;20456;-68
2021/08/31 21:10:16;;;;;;;25.00;8.07;;;;;;;16.52;81.89;102362.88;10149997;28;20058;-70
2021/08/31 21:15:13;;;;;;;24.63;6.82;;;;;;;16.28;83.35;102367.97;10135372;28;20468;-70
2021/08/31 21:20:10;;;;;;;24.17;6.75;;;;;;;16.34;82.98;102366.72;10148332;28;20124;-70
2021/08/31 21:25:07;;;;;;;18.25;5.72;;;;;;;16.25;83.09;102371.38;10146518;28;20073;-69
2021/08/31 21:30:05;;;;;;;23.17;6.50;;;;;;;16.11;83.69;102379.75;10141776;28;20050;-70
2021/08/31 21:35:01;;;;;;;23.08;6.93;;;;;;;16.15;83.63;102381.56;10149395;28;20046;-70
2021/08/31 21:39:59;;;;;;;28.05;7.28;;;;;;;16.14;83.21;102392.91;10149505;28;20050;-70
2021/08/31 21:44:55;;;;;;;18.45;6.80;;;;;;;16.07;83.42;102390.56;10150147;28;20137;-70
2021/08/31 21:49:52;;;;;;;25.27;6.80;;;;;;;16.04;83.38;102396.72;10138529;28;20133;-70
2021/08/31 21:54:48;;;;;;;26.75;7.75;;;;;;;15.93;84.12;102396.16;10147740;28;20043;-70
2021/08/31 21:59:45;;;;;;;22.33;6.10;;;;;;;15.95;84.06;102399.41;10148947;28;20104;-70
2021/08/31 22:04:41;;;;;;;24.65;6.72;;;;;;;15.90;83.64;102401.50;10149735;28;20628;-69
2021/08/31 22:09:38;;;;;;;32.45;7.60;;;;;;;15.78;84.03;102405.63;10141141;28;20398;-68
2021/08/31 22:14:35;;;;;;;27.58;6.70;;;;;;;15.79;84.24;102400.91;10146463;28;20062;-68
2021/08/31 22:19:31;;;;;;;22.95;7.07;;;;;;;15.69;84.90;102407.47;10148128;28;20050;-69
2021/08/31 22:24:27;;;;;;;23.17;6.88;;;;;;;15.65;84.64;102406.44;10143718;28;20120;-69
2021/08/31 22:29:24;;;;;;;20.70;6.07;;;;;;;15.66;84.50;102410.81;10139853;28;20082;-71
2021/08/31 22:34:20;;;;;;;23.85;6.15;;;;;;;15.70;84.27;102420.16;10143745;28;20073;-68